Latest Coastal Weather Observations for Onslow Airport

IDW60701

Issued at 12:33 am WST Friday 31 March 2017 (issued every 10 minutes, with the page automatically refreshed every 10 minutes)

About coastal observations | Map of coastal stations | Coastal observations for WA | Marine services | Other Formats
Station Details ID: 005017 Name: ONSLOW AIRPORT Lat: -21.67 Lon: 115.11 Height: 10.5 m
Data from the previous 72 hours. | See also: Recent months at Onslow Airport
Date/Time
WST
Temp
°C
Wind Pressure Rain since
9am
mm
Weather Cloud Vis
km
Sea
Height
m
Swell
Dir  Spd
kts
Gust
kts
hPa Trend Height
m
Period
s
Dir
31/12:30am 28.6 WNW 5 6 1014.3 - 0.0 - - - - - - -
31/12:00am 28.7 NNW 6 8 1014.2 - 0.0 - - - - - - -
 
Date/Time
WST
Temp
°C
Wind Pressure Rain since
9am
mm
Weather Cloud Vis
km
Sea
Height
m
Swell
Dir  Spd
kts
Gust
kts
hPa Trend Height
m
Period
s
Dir
30/11:30pm 28.7 NNW 7 9 1014.2 - 0.0 - - - - - - -
30/11:00pm 28.8 NNW 7 9 1014.3 - 0.0 - - - - - - -
30/10:30pm 28.8 N 8 10 1014.4 - 0.0 - - - - - - -
30/10:00pm 28.8 NNW 6 8 1014.4 - 0.0 - - - - - - -
30/09:30pm 28.8 NNW 7 9 1014.5 - 0.0 - - - - - - -
30/09:00pm 28.8 N 6 8 1014.4 - 0.0 - - - - - - -
30/08:30pm 28.9 N 7 8 1014.0 - 0.0 - - - - - - -
30/08:00pm 28.9 N 6 6 1013.8 - 0.0 - - - - - - -
30/07:30pm 29.1 N 7 8 1013.3 - 0.0 - - - - - - -
30/07:00pm 29.2 N 6 8 1012.9 - 0.0 - - - - - - -
30/06:30pm 29.5 N 8 9 1012.6 - 0.0 - - - - - - -
30/06:00pm 30.2 N 8 11 1012.3 - 0.0 - - - - - - -
30/05:30pm 30.5 NNW 9 11 1012.0 - 0.0 - - - - - - -
30/05:00pm 31.3 N 11 14 1012.0 - 0.0 - - - - - - -
30/04:30pm 31.8 N 12 14 1011.9 - 0.0 - - - - - - -
30/04:00pm 32.4 N 11 15 1011.6 - 0.0 - - - - - - -
30/03:30pm 32.3 N 10 12 1011.7 - 0.0 - - - - - - -
30/03:00pm 32.7 NNE 11 14 1011.7 - 0.0 - - - - - - -
30/02:30pm 32.6 NNE 12 16 1011.9 - 0.0 - - - - - - -
30/02:00pm 33.2 NNE 14 18 1012.1 - 0.0 - - - - - - -
30/01:30pm 32.6 NNE 13 17 1012.4 - 0.0 - - - - - - -
30/01:00pm 33.2 NNE 14 17 1012.5 - 0.0 - - - - - - -
30/12:30pm 33.1 NE 12 17 1012.8 - 0.0 - - - - - - -
30/12:00pm 33.5 ENE 16 21 1013.2 - 0.0 - - - - - - -
30/11:30am 33.1 ENE 17 22 1013.5 - 0.0 - - - - - - -
30/11:00am 33.0 ENE 16 21 1013.8 - 0.0 - - - - - - -
30/10:30am 32.2 ENE 16 21 1014.2 - 0.0 - - - - - - -
30/10:00am 31.7 ENE 14 18 1014.2 - 0.0 - - - - - - -
30/09:30am 30.9 E 14 17 1014.3 - 0.0 - - - - - - -
30/09:00am 29.7 E 16 19 1014.4 - 0.6 - - - - - - -
30/08:30am 29.7 E 15 18 1014.0 - 0.6 - - - - - - -
30/08:00am 28.3 E 15 18 1013.7 - 0.6 - - - - - - -
30/07:30am 27.1 E 10 12 1013.5 - 0.6 - - - - - - -
30/07:00am 27.0 E 9 12 1013.0 - 0.6 - - - - - - -
30/06:30am 26.9 E 10 11 1012.8 - 0.6 - - - - - - -
30/06:00am 27.0 ENE 9 11 1012.4 - 0.6 - - - - - - -
30/05:30am 27.2 E 10 12 1012.3 - 0.6 - - - - - - -
30/05:00am 27.2 ENE 8 9 1012.0 - 0.6 - - - - - - -
30/04:30am 27.3 ENE 9 11 1011.9 - 0.6 - - - - - - -
30/04:00am 27.3 ENE 11 13 1011.8 - 0.6 - - - - - - -
30/03:30am 27.2 ENE 9 11 1011.8 - 0.6 - - - - - - -
30/03:00am 26.8 E 6 8 1011.7 - 0.6 - - - - - - -
30/02:30am 26.5 ESE 6 7 1011.8 - 0.6 - - - - - - -
30/02:00am 26.4 E 8 10 1011.9 - 0.6 - - - - - - -
30/01:30am 26.3 ESE 7 9 1012.1 - 0.6 - - - - - - -
30/01:00am 26.3 ESE 7 8 1012.0 - 0.6 - - - - - - -
30/12:30am 26.2 SE 6 7 1012.3 - 0.6 - - - - - - -
30/12:00am 26.4 SSE 6 7 1012.5 - 0.6 - - - - - - -
 
Date/Time
WST
Temp
°C
Wind Pressure Rain since
9am
mm
Weather Cloud Vis
km
Sea
Height
m
Swell
Dir  Spd
kts
Gust
kts
hPa Trend Height
m
Period
s
Dir
29/11:30pm 26.5 S 7 8 1012.7 - 0.6 - - - - - - -
29/11:00pm 26.9 SSW 7 10 1012.6 - 0.6 - - - - - - -
29/10:30pm 27.3 S 7 10 1012.7 - 0.6 - - - - - - -
29/10:00pm 27.5 SSE 8 10 1012.9 - 0.6 - - - - - - -
29/09:30pm 27.3 ENE 7 9 1012.4 - 0.6 - - - - - - -
29/09:00pm 27.2 NNE 10 15 1011.9 - 0.6 - - - - - - -
29/08:30pm 28.0 ENE 4 5 1011.4 - 0.6 - - - - - - -
29/08:00pm 27.8 NNE 7 8 1010.9 - 0.6 - - - - - - -
29/07:30pm 28.2 ESE 7 9 1010.6 - 0.4 - - - - - - -
29/07:00pm 28.7 SSE 4 8 1011.2 - 0.0 - - - - - - -
29/06:30pm 28.4 SW 7 10 1010.5 - 0.0 - - - - - - -
29/06:00pm 29.9 W 7 9 1010.2 - 0.0 - - - - - - -
29/05:30pm 30.7 NNW 8 11 1009.8 - 0.0 - - - - - - -
29/05:00pm 31.0 NNW 10 12 1008.9 - 0.0 - - - - - - -
29/04:30pm 31.5 NNW 11 14 1008.5 - 0.0 - - - - - - -
29/04:00pm 32.1 NNW 10 13 1008.5 - 0.0 - - - - - - -
29/03:30pm 32.5 NNW 9 11 1008.6 - 0.0 - - - - - - -
29/03:00pm 33.4 NW 10 13 1008.5 - 0.0 - - - - - - -
29/02:30pm 34.4 NNW 7 10 1008.6 - 0.0 - - - - - - -
29/02:00pm 34.6 N 7 12 1008.8 - 0.0 - - - - - - -
29/01:30pm 34.4 N 8 11 1009.1 - 0.0 - - - - - - -
29/01:00pm 34.8 N 8 11 1009.3 - 0.0 - - - - - - -
29/12:30pm 33.8 NNE 8 11 1009.7 - 0.0 - - - - - - -
29/12:00pm 34.3 ENE 8 11 1010.2 - 0.0 - - - - - - -
29/11:30am 34.1 SE 7 9 1010.5 - 0.0 - - - - - - -
29/11:00am 33.4 SE 8 10 1010.8 - 0.0 - - - - - - -
29/10:30am 32.7 SE 8 11 1011.1 - 0.0 - - - - - - -
29/10:00am 31.7 SE 9 12 1011.3 - 0.0 - - - - - - -
29/09:30am 30.2 SE 9 11 1011.5 - 0.0 - - - - - - -
29/09:00am 29.5 SE 9 11 1011.6 - 32.0 - - - - - - -
29/08:30am 28.5 SSE 9 11 1011.6 - 32.0 - - - - - - -
29/08:00am 27.5 SSE 9 11 1011.4 - 32.0 - - - - - - -
29/07:30am 26.4 S 10 13 1010.8 - 32.0 - - - - - - -
29/07:00am 25.6 S 10 12 1010.7 - 32.0 - - - - - - -
29/06:30am 25.2 S 7 10 1010.4 - 32.0 - - - - - - -
29/06:00am 25.4 S 8 10 1010.0 - 32.0 - - - - - - -
29/05:30am 25.6 S 12 15 1009.6 - 32.0 - - - - - - -
29/05:00am 25.4 SSE 10 13 1009.6 - 32.0 - - - - - - -
29/04:30am 25.3 S 9 11 1009.6 - 32.0 - - - - - - -
29/04:00am 25.4 S 11 15 1009.4 - 32.0 - - - - - - -
29/03:30am 25.2 SSW 12 16 1009.1 - 32.0 - - - - - - -
29/03:00am 25.4 SSE 11 13 1009.1 - 32.0 - - - - - - -
29/02:30am 25.2 SSE 11 14 1009.3 - 32.0 - - - - - - -
29/02:00am 25.2 SE 11 13 1009.6 - 32.0 - - - - - - -
29/01:30am 25.1 ESE 6 8 1009.9 - 32.0 - - - - - - -
29/01:00am 24.8 ESE 7 9 1010.5 - 31.8 - - - - - - -
29/12:30am 24.9 SE 13 17 1011.5 - 30.6 - - - - - - -
29/12:00am 24.6 ESE 13 18 1011.9 - 29.0 Rain - - - - - -
 
Date/Time
WST
Temp
°C
Wind Pressure Rain since
9am
mm
Weather Cloud Vis
km
Sea
Height
m
Swell
Dir  Spd
kts
Gust
kts
hPa Trend Height
m
Period
s
Dir
28/11:30pm 24.3 ESE 13 15 1012.0 - 28.4 - - - - - - -
28/11:00pm 24.0 S 11 16 1012.4 - 28.2 - - - - - - -
28/10:30pm 23.5 SE 13 18 1013.1 - 27.8 - - - - - - -
28/10:23pm 23.8 SE 13 15 1013.3 - 27.8 - - - - - - -
28/10:00pm 22.6 ESE 20 25 1013.4 - 27.2 - - - - - - -
28/09:32pm 24.0 ENE 18 35 1013.4 - 12.0 - - - - - - -
28/09:30pm 24.8 ENE 15 28 1013.4 - 9.6 - - - - - - -
28/09:29pm 25.0 NE 13 28 1013.4 - 7.8 - - - - - - -
28/09:28pm 26.2 NE 12 28 1013.1 - 6.4 - - - - - - -
28/09:00pm 29.6 WSW 7 9 1010.9 - 0.0 - - - - - - -
28/08:30pm 29.2 WSW 10 13 1010.5 - 0.0 - - - - - - -
28/08:00pm 28.9 WSW 10 13 1010.0 - 0.0 - - - - - - -
28/07:30pm 28.9 WSW 11 15 1009.7 - 0.0 - - - - - - -
28/07:00pm 29.1 W 11 15 1009.0 - 0.0 - - - - - - -
28/06:30pm 29.4 W 12 15 1008.6 - 0.0 - - - - - - -
28/06:00pm 30.1 WNW 13 15 1008.5 - 0.0 - - - - - - -
28/05:30pm 31.0 NW 11 14 1007.9 - 0.0 - - - - - - -
28/05:00pm 31.7 NW 10 14 1008.1 - 0.0 - - - - - - -
28/04:30pm 31.9 NW 13 16 1008.2 - 0.0 - - - - - - -
28/04:00pm 33.0 NNW 14 17 1008.3 - 0.0 - - - - - - -
28/03:30pm 33.1 NNW 13 16 1008.5 - 0.0 - - - - - - -
28/03:00pm 33.6 NNW 13 16 1008.7 - 0.0 - - - - - - -
28/02:30pm 33.6 NNW 14 18 1009.0 - 0.0 - - - - - - -
28/02:00pm 35.2 NNW 13 16 1009.2 - 0.0 - - - - - - -
28/01:30pm 35.2 N 11 15 1009.6 - 0.0 - - - - - - -
28/01:00pm 35.3 N 12 14 1009.9 - 0.0 - - - - - - -
28/12:30pm 35.2 N 11 15 1010.4 - 0.0 - - - - - - -
28/12:00pm 34.9 NNE 11 14 1010.7 - 0.0 - - - - - - -
28/11:30am 35.3 NNE 8 11 1011.0 - 0.0 - - - - - - -
28/11:00am 35.3 ENE 11 15 1011.1 - 0.0 - - - - - - -
28/10:30am 34.5 ENE 9 12 1011.2 - 0.0 - - - - - - -
28/10:00am 34.0 SE 10 13 1011.3 - 0.0 - - - - - - -
28/09:30am 33.1 SE 10 13 1011.6 - 0.0 - - - - - - -
28/09:00am 31.2 SE 9 11 1011.7 - 0.6 - - - - - - -
28/08:30am 29.9 SE 10 13 1011.8 - 0.6 - - - - - - -
28/08:00am 28.3 SE 12 14 1011.4 - 0.6 - - - - - - -
28/07:30am 27.6 SE 11 14 1011.3 - 0.6 - - - - - - -
28/07:00am 26.2 SE 11 14 1011.1 - 0.6 - - - - - - -
28/06:30am 25.8 ESE 10 13 1010.9 - 0.6 - - - - - - -
28/06:00am 25.6 ESE 8 10 1010.4 - 0.6 - - - - - - -
28/05:30am 25.6 ESE 8 10 1010.3 - 0.6 - - - - - - -
28/05:00am 25.5 ESE 7 9 1010.3 - 0.6 - - - - - - -
28/04:30am 25.5 ESE 8 10 1010.1 - 0.6 - - - - - - -
28/04:00am 25.6 ESE 10 13 1010.1 - 0.6 - - - - - - -
28/03:30am 25.7 SE 9 11 1009.9 - 0.6 - - - - - - -
28/03:00am 25.4 SE 11 13 1010.3 - 0.6 - - - - - - -
28/02:30am 25.6 SE 10 12 1010.3 - 0.6 - - - - - - -
28/02:00am 25.3 SSE 8 11 1010.5 - 0.6 - - - - - - -
28/01:30am 25.2 SE 7 9 1010.7 - 0.6 - - - - - - -
28/01:00am 25.4 SSE 10 13 1011.0 - 0.6 - - - - - - -

Other Formats:

Comma delimited format used in spreadsheet applications
http://www.bom.gov.au/fwo/IDW60701/IDW60701.95305.axf

JavaScript Object Notation format (JSON) in row-major order
http://www.bom.gov.au/fwo/IDW60701/IDW60701.95305.json